Svitzer Leixoes — CSXW6 — position and weather

sailwx.info

Track history (hours):
 
Tides and Currents Weather Stations Pressure Air Temp Water Temp Dewpoint Dewpoint Depression Visibility Wind Speed Wind Dir Waves Ship Positions

Svitzer Leixoes

Last reported at 2014-Oct-25 08:33 UTC. Time now 2014-Oct-25 08:44 UTC.
Position N 38°42' W 009°10'.

Length 28 m; draft 3.9 m.

Type: Towing. MMSI: 263622000.

Date/timePositionNaut miles runAvg speedWind from/ knotsBaromVisibWave heightAir tempDewpointWater temp
2014-Oct-25 08:33N 38°42' W 009°10'0 0.0
2014-Oct-25 07:33N 38°42' W 009°10'0 0.4
2014-Oct-25 06:33N 38°42' W 009°10'0 0.4
2014-Oct-25 05:33N 38°42' W 009°10'0 0.0
2014-Oct-25 04:33N 38°42' W 009°10'0 0.0
2014-Oct-25 03:33N 38°42' W 009°10'0 0.0
2014-Oct-25 02:33N 38°42' W 009°10'0 0.0
2014-Oct-25 01:33N 38°42' W 009°10'5 4.7
2014-Oct-25 00:34N 38°41' W 009°04'2 2.1
2014-Oct-24 23:33N 38°41' W 009°06'3 2.9
2014-Oct-24 22:33N 38°42' W 009°10'0 0.0
2014-Oct-24 21:33N 38°42' W 009°10'0 0.0
2014-Oct-24 20:33N 38°42' W 009°10'1 1.3
2014-Oct-24 19:34N 38°41' W 009°08'0 0.3
2014-Oct-24 18:33N 38°42' W 009°09'1 1.0
2014-Oct-24 17:33N 38°42' W 009°10'0 0.0
2014-Oct-24 16:33N 38°42' W 009°10'4 3.7
2014-Oct-24 15:33N 38°41' W 009°05'1 1.2
2014-Oct-24 14:33N 38°41' W 009°07'1 1.0
2014-Oct-24 13:33N 38°41' W 009°08'1 0.9
2014-Oct-24 12:33N 38°40' W 009°09'2 1.8
2014-Oct-24 11:33N 38°41' W 009°07'2 1.7
2014-Oct-24 10:33N 38°42' W 009°08'1 1.1
2014-Oct-24 09:33N 38°42' W 009°10'0 0.0
2014-Oct-24 08:33N 38°42' W 009°10'2 2.3
2014-Oct-24 07:33N 38°43' W 009°07'2 1.9
2014-Oct-24 06:33N 38°42' W 009°09'0 0.5
2014-Oct-24 05:33N 38°42' W 009°10'0 0.0
2014-Oct-24 04:33N 38°42' W 009°10'0 0.0
2014-Oct-24 03:33N 38°42' W 009°10'0 0.0
2014-Oct-24 02:33N 38°42' W 009°10'0 0.0
2014-Oct-24 01:33N 38°42' W 009°10'0 0.0
2014-Oct-24 00:33N 38°42' W 009°10'0 0.0
2014-Oct-23 23:33N 38°42' W 009°10'0 0.0
2014-Oct-23 22:33N 38°42' W 009°10'3 2.7
2014-Oct-23 21:33N 38°43' W 009°06'3 2.7
2014-Oct-23 20:33N 38°42' W 009°10'0 0.0
2014-Oct-23 19:33N 38°42' W 009°10'0 0.0
2014-Oct-23 18:33N 38°42' W 009°10'0 0.0
2014-Oct-23 17:33N 38°42' W 009°10'0 0.0
2014-Oct-23 16:33N 38°42' W 009°10'0 0.0
2014-Oct-23 15:33N 38°42' W 009°10'0 0.0
2014-Oct-23 14:33N 38°42' W 009°10'0 0.0
2014-Oct-23 13:33N 38°42' W 009°10'0 0.0
2014-Oct-23 12:33N 38°42' W 009°10'0 0.0
2014-Oct-23 11:33N 38°42' W 009°10'0 0.0
2014-Oct-23 10:33N 38°42' W 009°10'0 0.1
2014-Oct-23 09:33N 38°42' W 009°10'0 0.0
2014-Oct-23 08:33N 38°42' W 009°10'1 1.0
2014-Oct-23 07:33N 38°41' W 009°09'1 1.0
2014-Oct-23 06:33N 38°42' W 009°10'1 1.1
2014-Oct-23 05:33N 38°42' W 009°11'1 1.1
2014-Oct-23 04:33N 38°42' W 009°10'0 0.0
2014-Oct-23 03:33N 38°42' W 009°10'0 0.0
2014-Oct-23 02:33N 38°42' W 009°10'5 4.8
2014-Oct-23 01:33N 38°41' W 009°04'5 4.6
2014-Oct-23 00:33N 38°42' W 009°09'0 0.4
2014-Oct-22 23:34N 38°42' W 009°10'0 0.0
2014-Oct-22 22:33N 38°42' W 009°10'0 0.0
2014-Oct-22 21:33N 38°42' W 009°10'0 0.0
2014-Oct-22 20:33N 38°42' W 009°10'0 0.0
2014-Oct-22 19:33N 38°42' W 009°10'0 0.0
2014-Oct-22 18:33N 38°42' W 009°10'0 0.0
2014-Oct-22 17:33N 38°42' W 009°10'0 0.0
2014-Oct-22 16:21N 38°42' W 009°10'0 0.0
2014-Oct-22 15:33N 38°42' W 009°10'0 0.0
2014-Oct-22 14:33N 38°42' W 009°10'0 0.0
2014-Oct-22 13:32N 38°42' W 009°10'0 0.0
2014-Oct-22 12:32N 38°42' W 009°10'0 0.0
2014-Oct-22 10:32N 38°42' W 009°10'3 2.6
2014-Oct-22 09:33N 38°43' W 009°07'1 1.5
2014-Oct-22 08:32N 38°42' W 009°08'1 0.4
2014-Oct-22 05:18N 38°42' W 009°10'0 0.0
2014-Oct-22 04:31N 38°42' W 009°10'0 0.0
2014-Oct-22 03:34N 38°42' W 009°10'0 0.0
2014-Oct-22 02:31N 38°42' W 009°10'0 0.0
2014-Oct-22 01:30N 38°42' W 009°10'0 0.0
2014-Oct-22 00:33N 38°42' W 009°10'0 0.0
2014-Oct-21 23:33N 38°42' W 009°10'0 0.0
2014-Oct-21 22:32N 38°42' W 009°10'0 0.0
2014-Oct-21 21:33N 38°42' W 009°10'0 0.0
2014-Oct-21 20:30N 38°42' W 009°10'0 0.0
2014-Oct-21 19:09N 38°42' W 009°10'0 0.0
2014-Oct-21 18:33N 38°42' W 009°10'0 0.0
2014-Oct-21 17:32N 38°42' W 009°10'0 0.0
2014-Oct-21 16:29N 38°42' W 009°10'0 0.0
2014-Oct-21 15:33N 38°42' W 009°10'2 1.0
2014-Oct-21 13:32N 38°43' W 009°07'1 0.5
2014-Oct-21 12:33N 38°42' W 009°08'2 1.5
2014-Oct-21 11:32N 38°42' W 009°10'0 0.0
2014-Oct-21 10:33N 38°42' W 009°10'0 0.0
2014-Oct-21 09:31N 38°42' W 009°10'0 0.0
2014-Oct-21 08:19N 38°42' W 009°10'0 0.0
2014-Oct-21 07:33N 38°42' W 009°10'0 0.3
2014-Oct-21 06:33N 38°42' W 009°10'0 0.2
2014-Oct-21 05:33N 38°42' W 009°10'0 0.1
2014-Oct-21 04:33N 38°42' W 009°10'0 0.1
2014-Oct-20 23:23N 38°42' W 009°10'2 2.2
2014-Oct-20 22:32N 38°43' W 009°07'0 0.0
2014-Oct-20 21:33N 38°43' W 009°07'2 1.8
2014-Oct-20 20:28N 38°42' W 009°10'0 0.0
2014-Oct-20 19:26N 38°42' W 009°10'0 0.0
2014-Oct-20 18:07N 38°42' W 009°10'0 0.0
2014-Oct-20 12:11N 38°42' W 009°10'0 0.5
2014-Oct-20 11:33N 38°42' W 009°10'0 0.0
2014-Oct-20 01:05N 38°42' W 009°10'2 1.2
2014-Oct-19 23:32N 38°43' W 009°07'1 0.9
2014-Oct-19 22:33N 38°42' W 009°08'1 0.0
2014-Oct-19 00:27N 38°42' W 009°09'1 1.6
2014-Oct-18 23:33N 38°42' W 009°08'1 1.2
2014-Oct-18 22:28N 38°43' W 009°06'3 0.4
2014-Oct-18 15:15N 38°42' W 009°10'1 0.1
2014-Oct-18 07:29N 38°42' W 009°09'0 0.0
2014-Oct-17 18:31N 38°42' W 009°09'1 1.4
2014-Oct-17 17:33N 38°41' W 009°08'2 0.8
2014-Oct-17 15:17N 38°42' W 009°09'1 1.8
2014-Oct-17 14:33N 38°42' W 009°08'0 0.1
2014-Oct-17 13:33N 38°42' W 009°08'2 1.8
2014-Oct-17 12:16N 38°42' W 009°10'0 0.1
2014-Oct-17 06:21N 38°42' W 009°10'0 0.3
2014-Oct-17 05:05N 38°42' W 009°10'2 0.1
2014-Oct-16 11:14N 38°40' W 009°09'2 2.4
2014-Oct-16 10:22N 38°42' W 009°10'2 2.3
2014-Oct-16 09:22N 38°43' W 009°07'2 0.4
2014-Oct-16 03:25N 38°42' W 009°10'0 0.0
2014-Oct-16 02:34N 38°42' W 009°10'0 0.0
2014-Oct-16 01:33N 38°42' W 009°10'0 0.0
2014-Oct-16 00:34N 38°42' W 009°10'0 0.0
2014-Oct-15 23:33N 38°42' W 009°10'0 0.0
2014-Oct-15 22:33N 38°42' W 009°10'0 0.0
2014-Oct-15 21:34N 38°42' W 009°10'1 1.3
2014-Oct-15 20:33N 38°42' W 009°08'2 1.7
2014-Oct-15 19:33N 38°44' W 009°06'0 0.0
2014-Oct-15 18:34N 38°44' W 009°06'2 2.2
2014-Oct-15 17:33N 38°42' W 009°08'2 1.5
2014-Oct-15 16:33N 38°42' W 009°09'0 0.1
2014-Oct-15 15:33N 38°42' W 009°10'0 0.0
2014-Oct-15 14:34N 38°42' W 009°10'0 0.0
2014-Oct-15 13:33N 38°42' W 009°10'0 0.0
2014-Oct-15 12:34N 38°42' W 009°10'0 0.0
2014-Oct-15 11:33N 38°42' W 009°10'0 0.0
2014-Oct-15 10:34N 38°42' W 009°10'0 0.0
2014-Oct-15 09:34N 38°42' W 009°10'0 0.0
2014-Oct-15 08:33N 38°42' W 009°10'  
Track history (hours):
 
Tides and Currents Weather Stations Pressure Air Temp Water Temp Dewpoint Dewpoint Depression Visibility Wind Speed Wind Dir Waves Ship Positions

Svitzer Leixoes

Last reported at 2014-Oct-25 08:33 UTC. Time now 2014-Oct-25 08:44 UTC.
Position N 38°42' W 009°10'.

Length 28 m; draft 3.9 m.

Type: Towing. MMSI: 263622000.

Date/timePositionNaut miles runAvg speedWind from/ knotsBaromVisibWave heightAir tempDewpointWater temp
2014-Oct-25 08:33N 38°42' W 009°10'0 0.0
2014-Oct-25 07:33N 38°42' W 009°10'0 0.4
2014-Oct-25 06:33N 38°42' W 009°10'0 0.4
2014-Oct-25 05:33N 38°42' W 009°10'0 0.0
2014-Oct-25 04:33N 38°42' W 009°10'0 0.0
2014-Oct-25 03:33N 38°42' W 009°10'0 0.0
2014-Oct-25 02:33N 38°42' W 009°10'0 0.0
2014-Oct-25 01:33N 38°42' W 009°10'5 4.7
2014-Oct-25 00:34N 38°41' W 009°04'2 2.1
2014-Oct-24 23:33N 38°41' W 009°06'3 2.9
2014-Oct-24 22:33N 38°42' W 009°10'0 0.0
2014-Oct-24 21:33N 38°42' W 009°10'0 0.0
2014-Oct-24 20:33N 38°42' W 009°10'1 1.3
2014-Oct-24 19:34N 38°41' W 009°08'0 0.3
2014-Oct-24 18:33N 38°42' W 009°09'1 1.0
2014-Oct-24 17:33N 38°42' W 009°10'0 0.0
2014-Oct-24 16:33N 38°42' W 009°10'4 3.7
2014-Oct-24 15:33N 38°41' W 009°05'1 1.2
2014-Oct-24 14:33N 38°41' W 009°07'1 1.0
2014-Oct-24 13:33N 38°41' W 009°08'1 0.9
2014-Oct-24 12:33N 38°40' W 009°09'2 1.8
2014-Oct-24 11:33N 38°41' W 009°07'2 1.7
2014-Oct-24 10:33N 38°42' W 009°08'1 1.1
2014-Oct-24 09:33N 38°42' W 009°10'0 0.0
2014-Oct-24 08:33N 38°42' W 009°10'2 2.3
2014-Oct-24 07:33N 38°43' W 009°07'2 1.9
2014-Oct-24 06:33N 38°42' W 009°09'0 0.5
2014-Oct-24 05:33N 38°42' W 009°10'0 0.0
2014-Oct-24 04:33N 38°42' W 009°10'0 0.0
2014-Oct-24 03:33N 38°42' W 009°10'0 0.0
2014-Oct-24 02:33N 38°42' W 009°10'0 0.0
2014-Oct-24 01:33N 38°42' W 009°10'0 0.0
2014-Oct-24 00:33N 38°42' W 009°10'0 0.0
2014-Oct-23 23:33N 38°42' W 009°10'0 0.0
2014-Oct-23 22:33N 38°42' W 009°10'3 2.7
2014-Oct-23 21:33N 38°43' W 009°06'3 2.7
2014-Oct-23 20:33N 38°42' W 009°10'0 0.0
2014-Oct-23 19:33N 38°42' W 009°10'0 0.0
2014-Oct-23 18:33N 38°42' W 009°10'0 0.0
2014-Oct-23 17:33N 38°42' W 009°10'0 0.0
2014-Oct-23 16:33N 38°42' W 009°10'0 0.0
2014-Oct-23 15:33N 38°42' W 009°10'0 0.0
2014-Oct-23 14:33N 38°42' W 009°10'0 0.0
2014-Oct-23 13:33N 38°42' W 009°10'0 0.0
2014-Oct-23 12:33N 38°42' W 009°10'0 0.0
2014-Oct-23 11:33N 38°42' W 009°10'0 0.0
2014-Oct-23 10:33N 38°42' W 009°10'0 0.1
2014-Oct-23 09:33N 38°42' W 009°10'0 0.0
2014-Oct-23 08:33N 38°42' W 009°10'1 1.0
2014-Oct-23 07:33N 38°41' W 009°09'1 1.0
2014-Oct-23 06:33N 38°42' W 009°10'1 1.1
2014-Oct-23 05:33N 38°42' W 009°11'1 1.1
2014-Oct-23 04:33N 38°42' W 009°10'0 0.0
2014-Oct-23 03:33N 38°42' W 009°10'0 0.0
2014-Oct-23 02:33N 38°42' W 009°10'5 4.8
2014-Oct-23 01:33N 38°41' W 009°04'5 4.6
2014-Oct-23 00:33N 38°42' W 009°09'0 0.4
2014-Oct-22 23:34N 38°42' W 009°10'0 0.0
2014-Oct-22 22:33N 38°42' W 009°10'0 0.0
2014-Oct-22 21:33N 38°42' W 009°10'0 0.0
2014-Oct-22 20:33N 38°42' W 009°10'0 0.0
2014-Oct-22 19:33N 38°42' W 009°10'0 0.0
2014-Oct-22 18:33N 38°42' W 009°10'0 0.0
2014-Oct-22 17:33N 38°42' W 009°10'0 0.0
2014-Oct-22 16:21N 38°42' W 009°10'0 0.0
2014-Oct-22 15:33N 38°42' W 009°10'0 0.0
2014-Oct-22 14:33N 38°42' W 009°10'0 0.0
2014-Oct-22 13:32N 38°42' W 009°10'0 0.0
2014-Oct-22 12:32N 38°42' W 009°10'0 0.0
2014-Oct-22 10:32N 38°42' W 009°10'3 2.6
2014-Oct-22 09:33N 38°43' W 009°07'1 1.5
2014-Oct-22 08:32N 38°42' W 009°08'1 0.4
2014-Oct-22 05:18N 38°42' W 009°10'0 0.0
2014-Oct-22 04:31N 38°42' W 009°10'0 0.0
2014-Oct-22 03:34N 38°42' W 009°10'0 0.0
2014-Oct-22 02:31N 38°42' W 009°10'0 0.0
2014-Oct-22 01:30N 38°42' W 009°10'0 0.0
2014-Oct-22 00:33N 38°42' W 009°10'0 0.0
2014-Oct-21 23:33N 38°42' W 009°10'0 0.0
2014-Oct-21 22:32N 38°42' W 009°10'0 0.0
2014-Oct-21 21:33N 38°42' W 009°10'0 0.0
2014-Oct-21 20:30N 38°42' W 009°10'0 0.0
2014-Oct-21 19:09N 38°42' W 009°10'0 0.0
2014-Oct-21 18:33N 38°42' W 009°10'0 0.0
2014-Oct-21 17:32N 38°42' W 009°10'0 0.0
2014-Oct-21 16:29N 38°42' W 009°10'0 0.0
2014-Oct-21 15:33N 38°42' W 009°10'2 1.0
2014-Oct-21 13:32N 38°43' W 009°07'1 0.5
2014-Oct-21 12:33N 38°42' W 009°08'2 1.5
2014-Oct-21 11:32N 38°42' W 009°10'0 0.0
2014-Oct-21 10:33N 38°42' W 009°10'0 0.0
2014-Oct-21 09:31N 38°42' W 009°10'0 0.0
2014-Oct-21 08:19N 38°42' W 009°10'0 0.0
2014-Oct-21 07:33N 38°42' W 009°10'0 0.3
2014-Oct-21 06:33N 38°42' W 009°10'0 0.2
2014-Oct-21 05:33N 38°42' W 009°10'0 0.1
2014-Oct-21 04:33N 38°42' W 009°10'0 0.1
2014-Oct-20 23:23N 38°42' W 009°10'2 2.2
2014-Oct-20 22:32N 38°43' W 009°07'0 0.0
2014-Oct-20 21:33N 38°43' W 009°07'2 1.8
2014-Oct-20 20:28N 38°42' W 009°10'0 0.0
2014-Oct-20 19:26N 38°42' W 009°10'0 0.0
2014-Oct-20 18:07N 38°42' W 009°10'0 0.0
2014-Oct-20 12:11N 38°42' W 009°10'0 0.5
2014-Oct-20 11:33N 38°42' W 009°10'0 0.0
2014-Oct-20 01:05N 38°42' W 009°10'2 1.2
2014-Oct-19 23:32N 38°43' W 009°07'1 0.9
2014-Oct-19 22:33N 38°42' W 009°08'1 0.0
2014-Oct-19 00:27N 38°42' W 009°09'1 1.6
2014-Oct-18 23:33N 38°42' W 009°08'1 1.2
2014-Oct-18 22:28N 38°43' W 009°06'3 0.4
2014-Oct-18 15:15N 38°42' W 009°10'1 0.1
2014-Oct-18 07:29N 38°42' W 009°09'0 0.0
2014-Oct-17 18:31N 38°42' W 009°09'1 1.4
2014-Oct-17 17:33N 38°41' W 009°08'2 0.8
2014-Oct-17 15:17N 38°42' W 009°09'1 1.8
2014-Oct-17 14:33N 38°42' W 009°08'0 0.1
2014-Oct-17 13:33N 38°42' W 009°08'2 1.8
2014-Oct-17 12:16N 38°42' W 009°10'0 0.1
2014-Oct-17 06:21N 38°42' W 009°10'0 0.3
2014-Oct-17 05:05N 38°42' W 009°10'2 0.1
2014-Oct-16 11:14N 38°40' W 009°09'2 2.4
2014-Oct-16 10:22N 38°42' W 009°10'2 2.3
2014-Oct-16 09:22N 38°43' W 009°07'2 0.4
2014-Oct-16 03:25N 38°42' W 009°10'0 0.0
2014-Oct-16 02:34N 38°42' W 009°10'0 0.0
2014-Oct-16 01:33N 38°42' W 009°10'0 0.0
2014-Oct-16 00:34N 38°42' W 009°10'0 0.0
2014-Oct-15 23:33N 38°42' W 009°10'0 0.0
2014-Oct-15 22:33N 38°42' W 009°10'0 0.0
2014-Oct-15 21:34N 38°42' W 009°10'1 1.3
2014-Oct-15 20:33N 38°42' W 009°08'2 1.7
2014-Oct-15 19:33N 38°44' W 009°06'0 0.0
2014-Oct-15 18:34N 38°44' W 009°06'2 2.2
2014-Oct-15 17:33N 38°42' W 009°08'2 1.5
2014-Oct-15 16:33N 38°42' W 009°09'0 0.1
2014-Oct-15 15:33N 38°42' W 009°10'0 0.0
2014-Oct-15 14:34N 38°42' W 009°10'0 0.0
2014-Oct-15 13:33N 38°42' W 009°10'0 0.0
2014-Oct-15 12:34N 38°42' W 009°10'0 0.0
2014-Oct-15 11:33N 38°42' W 009°10'0 0.0
2014-Oct-15 10:34N 38°42' W 009°10'0 0.0
2014-Oct-15 09:34N 38°42' W 009°10'0 0.0
2014-Oct-15 08:33N 38°42' W 009°10'  

Dump ship's entire track history